sensor_id;sensor_type;location;lat;lon;timestamp;P1;durP1;ratioP1;P2;durP2;ratioP2
54993;SDS011;40891;47.242;8.648;2022-10-31T00:01:21;22.67;;;7.77;;
54993;SDS011;40891;47.242;8.648;2022-10-31T00:03:49;16.47;;;7.93;;
54993;SDS011;40891;47.242;8.648;2022-10-31T00:06:15;18.53;;;7.07;;
54993;SDS011;40891;47.242;8.648;2022-10-31T00:08:43;19.10;;;7.30;;
54993;SDS011;40891;47.242;8.648;2022-10-31T00:11:12;18.80;;;7.73;;
54993;SDS011;40891;47.242;8.648;2022-10-31T00:13:37;15.77;;;7.23;;
54993;SDS011;40891;47.242;8.648;2022-10-31T00:16:03;15.60;;;6.53;;
54993;SDS011;40891;47.242;8.648;2022-10-31T00:18:28;17.40;;;7.03;;
54993;SDS011;40891;47.242;8.648;2022-10-31T00:21:01;18.70;;;8.17;;
54993;SDS011;40891;47.242;8.648;2022-10-31T00:23:27;11.97;;;6.60;;
54993;SDS011;40891;47.242;8.648;2022-10-31T00:25:53;20.33;;;7.77;;
54993;SDS011;40891;47.242;8.648;2022-10-31T00:28:18;13.83;;;7.03;;
54993;SDS011;40891;47.242;8.648;2022-10-31T00:30:43;15.50;;;6.73;;
54993;SDS011;40891;47.242;8.648;2022-10-31T00:33:09;14.30;;;7.63;;
54993;SDS011;40891;47.242;8.648;2022-10-31T00:35:34;14.77;;;7.63;;
54993;SDS011;40891;47.242;8.648;2022-10-31T00:37:59;14.00;;;7.23;;
54993;SDS011;40891;47.242;8.648;2022-10-31T00:40:25;17.43;;;7.73;;
54993;SDS011;40891;47.242;8.648;2022-10-31T00:42:50;16.80;;;8.10;;
54993;SDS011;40891;47.242;8.648;2022-10-31T00:45:15;17.80;;;8.13;;
54993;SDS011;40891;47.242;8.648;2022-10-31T00:47:41;16.23;;;6.87;;
54993;SDS011;40891;47.242;8.648;2022-10-31T00:50:06;18.17;;;7.03;;
54993;SDS011;40891;47.242;8.648;2022-10-31T00:52:32;17.63;;;6.77;;
54993;SDS011;40891;47.242;8.648;2022-10-31T00:54:58;15.37;;;6.43;;
54993;SDS011;40891;47.242;8.648;2022-10-31T00:57:23;12.23;;;7.00;;
54993;SDS011;40891;47.242;8.648;2022-10-31T00:59:48;14.27;;;6.63;;
54993;SDS011;40891;47.242;8.648;2022-10-31T01:02:13;20.43;;;7.17;;
54993;SDS011;40891;47.242;8.648;2022-10-31T01:04:39;17.30;;;6.80;;
54993;SDS011;40891;47.242;8.648;2022-10-31T01:07:04;22.10;;;7.23;;
54993;SDS011;40891;47.242;8.648;2022-10-31T01:09:29;16.77;;;7.07;;
54993;SDS011;40891;47.242;8.648;2022-10-31T01:11:55;18.80;;;7.83;;
54993;SDS011;40891;47.242;8.648;2022-10-31T01:14:20;14.03;;;7.37;;
54993;SDS011;40891;47.242;8.648;2022-10-31T01:16:45;22.30;;;7.43;;
54993;SDS011;40891;47.242;8.648;2022-10-31T01:19:11;24.07;;;9.20;;
54993;SDS011;40891;47.242;8.648;2022-10-31T01:21:36;21.23;;;8.23;;
54993;SDS011;40891;47.242;8.648;2022-10-31T01:24:02;19.97;;;9.30;;
54993;SDS011;40891;47.242;8.648;2022-10-31T01:26:28;14.73;;;8.70;;
54993;SDS011;40891;47.242;8.648;2022-10-31T01:29:04;23.97;;;9.23;;
54993;SDS011;40891;47.242;8.648;2022-10-31T01:31:32;19.97;;;9.20;;
54993;SDS011;40891;47.242;8.648;2022-10-31T01:34:02;26.07;;;10.67;;
54993;SDS011;40891;47.242;8.648;2022-10-31T01:36:29;21.27;;;10.10;;
54993;SDS011;40891;47.242;8.648;2022-10-31T01:38:57;18.37;;;9.90;;
54993;SDS011;40891;47.242;8.648;2022-10-31T01:41:26;24.40;;;9.23;;
54993;SDS011;40891;47.242;8.648;2022-10-31T01:43:54;17.50;;;8.37;;
54993;SDS011;40891;47.242;8.648;2022-10-31T01:46:50;17.07;;;7.40;;
54993;SDS011;40891;47.242;8.648;2022-10-31T01:54:56;20.17;;;7.73;;
54993;SDS011;40891;47.242;8.648;2022-10-31T01:57:27;20.73;;;7.60;;
54993;SDS011;40891;47.242;8.648;2022-10-31T01:59:55;18.83;;;7.83;;
54993;SDS011;40891;47.242;8.648;2022-10-31T02:02:24;21.73;;;8.10;;
54993;SDS011;40891;47.242;8.648;2022-10-31T02:04:50;23.50;;;8.77;;
54993;SDS011;40891;47.242;8.648;2022-10-31T02:07:18;19.40;;;8.73;;
54993;SDS011;40891;47.242;8.648;2022-10-31T02:09:50;14.10;;;6.70;;
54993;SDS011;40891;47.242;8.648;2022-10-31T02:12:17;19.03;;;7.93;;
54993;SDS011;40891;47.242;8.648;2022-10-31T02:14:43;17.03;;;7.00;;
54993;SDS011;40891;47.242;8.648;2022-10-31T02:17:09;13.80;;;6.80;;
54993;SDS011;40891;47.242;8.648;2022-10-31T02:31:35;16.67;;;6.07;;
54993;SDS011;40891;47.242;8.648;2022-10-31T02:34:18;15.80;;;6.30;;
54993;SDS011;40891;47.242;8.648;2022-10-31T02:36:53;19.00;;;6.33;;
54993;SDS011;40891;47.242;8.648;2022-10-31T02:39:38;14.03;;;7.17;;
54993;SDS011;40891;47.242;8.648;2022-10-31T02:42:26;19.00;;;7.60;;
54993;SDS011;40891;47.242;8.648;2022-10-31T02:45:06;22.70;;;7.70;;
54993;SDS011;40891;47.242;8.648;2022-10-31T02:47:33;18.33;;;8.03;;
54993;SDS011;40891;47.242;8.648;2022-10-31T02:53:00;17.90;;;7.93;;
54993;SDS011;40891;47.242;8.648;2022-10-31T02:57:53;25.93;;;7.80;;
54993;SDS011;40891;47.242;8.648;2022-10-31T03:00:21;17.60;;;8.37;;
54993;SDS011;40891;47.242;8.648;2022-10-31T03:05:31;20.10;;;8.07;;
54993;SDS011;40891;47.242;8.648;2022-10-31T03:08:33;20.40;;;8.13;;
54993;SDS011;40891;47.242;8.648;2022-10-31T03:11:05;19.53;;;7.60;;
54993;SDS011;40891;47.242;8.648;2022-10-31T03:16:26;22.30;;;10.60;;
54993;SDS011;40891;47.242;8.648;2022-10-31T03:19:08;29.60;;;10.87;;
54993;SDS011;40891;47.242;8.648;2022-10-31T03:21:45;27.47;;;12.73;;
54993;SDS011;40891;47.242;8.648;2022-10-31T03:24:15;90.43;;;15.53;;
54993;SDS011;40891;47.242;8.648;2022-10-31T03:26:44;163.87;;;18.73;;
54993;SDS011;40891;47.242;8.648;2022-10-31T03:29:15;115.53;;;13.97;;
54993;SDS011;40891;47.242;8.648;2022-10-31T03:31:50;46.03;;;13.63;;
54993;SDS011;40891;47.242;8.648;2022-10-31T03:34:20;25.30;;;12.57;;
54993;SDS011;40891;47.242;8.648;2022-10-31T03:36:47;21.43;;;12.23;;
54993;SDS011;40891;47.242;8.648;2022-10-31T03:39:15;21.13;;;11.80;;
54993;SDS011;40891;47.242;8.648;2022-10-31T03:41:45;27.83;;;11.60;;
54993;SDS011;40891;47.242;8.648;2022-10-31T03:44:16;21.83;;;10.60;;
54993;SDS011;40891;47.242;8.648;2022-10-31T03:46:44;21.57;;;10.87;;
54993;SDS011;40891;47.242;8.648;2022-10-31T03:49:09;19.07;;;10.80;;
54993;SDS011;40891;47.242;8.648;2022-10-31T03:51:42;24.90;;;10.77;;
54993;SDS011;40891;47.242;8.648;2022-10-31T03:54:24;18.93;;;10.33;;
54993;SDS011;40891;47.242;8.648;2022-10-31T03:59:41;23.93;;;10.10;;
54993;SDS011;40891;47.242;8.648;2022-10-31T04:02:14;24.40;;;10.60;;
54993;SDS011;40891;47.242;8.648;2022-10-31T04:04:42;26.60;;;11.03;;
54993;SDS011;40891;47.242;8.648;2022-10-31T04:07:09;27.30;;;11.13;;
54993;SDS011;40891;47.242;8.648;2022-10-31T04:09:36;31.23;;;12.70;;
54993;SDS011;40891;47.242;8.648;2022-10-31T04:12:04;20.97;;;11.40;;
54993;SDS011;40891;47.242;8.648;2022-10-31T04:14:34;28.13;;;12.07;;
54993;SDS011;40891;47.242;8.648;2022-10-31T04:17:03;31.53;;;12.97;;
54993;SDS011;40891;47.242;8.648;2022-10-31T04:19:31;26.90;;;12.00;;
54993;SDS011;40891;47.242;8.648;2022-10-31T04:21:57;27.40;;;12.53;;
54993;SDS011;40891;47.242;8.648;2022-10-31T04:24:23;28.67;;;12.90;;
54993;SDS011;40891;47.242;8.648;2022-10-31T04:26:48;35.33;;;13.93;;
54993;SDS011;40891;47.242;8.648;2022-10-31T04:29:13;30.07;;;13.03;;
54993;SDS011;40891;47.242;8.648;2022-10-31T04:31:39;33.53;;;12.53;;
54993;SDS011;40891;47.242;8.648;2022-10-31T04:34:04;23.63;;;12.30;;
54993;SDS011;40891;47.242;8.648;2022-10-31T04:36:30;29.13;;;12.77;;
54993;SDS011;40891;47.242;8.648;2022-10-31T04:38:55;28.97;;;12.73;;
54993;SDS011;40891;47.242;8.648;2022-10-31T04:41:20;31.00;;;12.60;;
54993;SDS011;40891;47.242;8.648;2022-10-31T04:43:46;27.93;;;11.73;;
54993;SDS011;40891;47.242;8.648;2022-10-31T04:46:11;42.33;;;14.83;;
54993;SDS011;40891;47.242;8.648;2022-10-31T04:48:36;25.67;;;12.50;;
54993;SDS011;40891;47.242;8.648;2022-10-31T04:51:02;26.47;;;12.07;;
54993;SDS011;40891;47.242;8.648;2022-10-31T04:53:28;23.50;;;12.77;;
54993;SDS011;40891;47.242;8.648;2022-10-31T04:55:54;25.00;;;11.60;;
54993;SDS011;40891;47.242;8.648;2022-10-31T04:58:19;23.33;;;11.97;;
54993;SDS011;40891;47.242;8.648;2022-10-31T05:00:45;27.53;;;12.67;;
54993;SDS011;40891;47.242;8.648;2022-10-31T05:03:10;24.13;;;12.83;;
54993;SDS011;40891;47.242;8.648;2022-10-31T05:05:35;26.30;;;12.23;;
54993;SDS011;40891;47.242;8.648;2022-10-31T05:08:01;29.23;;;12.07;;
54993;SDS011;40891;47.242;8.648;2022-10-31T05:10:28;49.30;;;13.50;;
54993;SDS011;40891;47.242;8.648;2022-10-31T05:12:58;240.53;;;16.80;;
54993;SDS011;40891;47.242;8.648;2022-10-31T05:15:26;202.97;;;14.97;;
54993;SDS011;40891;47.242;8.648;2022-10-31T05:17:52;165.37;;;14.70;;
54993;SDS011;40891;47.242;8.648;2022-10-31T05:20:19;125.23;;;13.70;;
54993;SDS011;40891;47.242;8.648;2022-10-31T05:22:47;171.53;;;13.70;;
54993;SDS011;40891;47.242;8.648;2022-10-31T05:25:14;180.27;;;14.57;;
54993;SDS011;40891;47.242;8.648;2022-10-31T05:27:40;138.60;;;12.77;;
54993;SDS011;40891;47.242;8.648;2022-10-31T05:30:07;84.23;;;9.20;;
54993;SDS011;40891;47.242;8.648;2022-10-31T05:32:40;153.37;;;14.27;;
54993;SDS011;40891;47.242;8.648;2022-10-31T05:35:08;142.93;;;12.90;;
54993;SDS011;40891;47.242;8.648;2022-10-31T05:37:36;48.77;;;10.03;;
54993;SDS011;40891;47.242;8.648;2022-10-31T05:40:02;85.87;;;10.53;;
54993;SDS011;40891;47.242;8.648;2022-10-31T05:42:29;94.90;;;11.63;;
54993;SDS011;40891;47.242;8.648;2022-10-31T05:44:54;62.10;;;10.87;;
54993;SDS011;40891;47.242;8.648;2022-10-31T05:47:19;106.03;;;11.97;;
54993;SDS011;40891;47.242;8.648;2022-10-31T05:49:45;21.83;;;8.70;;
54993;SDS011;40891;47.242;8.648;2022-10-31T05:52:10;38.13;;;8.80;;
54993;SDS011;40891;47.242;8.648;2022-10-31T05:54:35;32.07;;;9.27;;
54993;SDS011;40891;47.242;8.648;2022-10-31T05:57:01;23.93;;;7.30;;
54993;SDS011;40891;47.242;8.648;2022-10-31T05:59:26;19.93;;;7.17;;
54993;SDS011;40891;47.242;8.648;2022-10-31T06:01:51;19.70;;;8.10;;
54993;SDS011;40891;47.242;8.648;2022-10-31T06:04:17;14.37;;;6.97;;
54993;SDS011;40891;47.242;8.648;2022-10-31T06:06:42;15.33;;;6.77;;
54993;SDS011;40891;47.242;8.648;2022-10-31T06:09:07;17.03;;;7.33;;
54993;SDS011;40891;47.242;8.648;2022-10-31T06:11:33;12.80;;;7.40;;
54993;SDS011;40891;47.242;8.648;2022-10-31T06:13:58;12.83;;;7.17;;
54993;SDS011;40891;47.242;8.648;2022-10-31T06:16:23;13.23;;;7.57;;
54993;SDS011;40891;47.242;8.648;2022-10-31T06:18:49;14.97;;;8.47;;
54993;SDS011;40891;47.242;8.648;2022-10-31T06:21:14;16.83;;;8.73;;
54993;SDS011;40891;47.242;8.648;2022-10-31T06:23:39;17.00;;;9.17;;
54993;SDS011;40891;47.242;8.648;2022-10-31T06:26:05;27.87;;;10.40;;
54993;SDS011;40891;47.242;8.648;2022-10-31T06:28:30;21.63;;;11.40;;
54993;SDS011;40891;47.242;8.648;2022-10-31T06:30:55;25.90;;;9.77;;
54993;SDS011;40891;47.242;8.648;2022-10-31T06:33:21;19.87;;;11.03;;
54993;SDS011;40891;47.242;8.648;2022-10-31T06:35:46;25.13;;;11.10;;
54993;SDS011;40891;47.242;8.648;2022-10-31T06:38:12;26.57;;;11.03;;
54993;SDS011;40891;47.242;8.648;2022-10-31T06:40:38;22.33;;;11.37;;
54993;SDS011;40891;47.242;8.648;2022-10-31T06:43:03;24.57;;;11.10;;
54993;SDS011;40891;47.242;8.648;2022-10-31T06:45:29;30.93;;;11.83;;
54993;SDS011;40891;47.242;8.648;2022-10-31T06:47:54;127.73;;;14.77;;
54993;SDS011;40891;47.242;8.648;2022-10-31T06:50:21;203.50;;;16.57;;
54993;SDS011;40891;47.242;8.648;2022-10-31T06:53:05;57.43;;;13.13;;
54993;SDS011;40891;47.242;8.648;2022-10-31T06:55:31;123.90;;;15.33;;
54993;SDS011;40891;47.242;8.648;2022-10-31T06:57:57;147.13;;;15.20;;
54993;SDS011;40891;47.242;8.648;2022-10-31T07:00:25;139.07;;;14.60;;
54993;SDS011;40891;47.242;8.648;2022-10-31T07:02:55;43.83;;;12.97;;
54993;SDS011;40891;47.242;8.648;2022-10-31T07:05:26;22.13;;;11.93;;
54993;SDS011;40891;47.242;8.648;2022-10-31T07:07:53;34.00;;;11.93;;
54993;SDS011;40891;47.242;8.648;2022-10-31T07:10:23;33.37;;;12.60;;
54993;SDS011;40891;47.242;8.648;2022-10-31T07:13:00;28.37;;;11.23;;
54993;SDS011;40891;47.242;8.648;2022-10-31T07:15:28;24.43;;;11.40;;
54993;SDS011;40891;47.242;8.648;2022-10-31T07:18:04;34.20;;;11.17;;
54993;SDS011;40891;47.242;8.648;2022-10-31T07:20:31;66.07;;;13.00;;
54993;SDS011;40891;47.242;8.648;2022-10-31T07:22:57;98.50;;;12.70;;
54993;SDS011;40891;47.242;8.648;2022-10-31T07:25:23;36.77;;;11.93;;
54993;SDS011;40891;47.242;8.648;2022-10-31T07:27:49;26.73;;;10.67;;
54993;SDS011;40891;47.242;8.648;2022-10-31T07:30:15;35.07;;;9.97;;
54993;SDS011;40891;47.242;8.648;2022-10-31T07:32:43;135.43;;;12.67;;
54993;SDS011;40891;47.242;8.648;2022-10-31T07:35:11;35.80;;;11.43;;
54993;SDS011;40891;47.242;8.648;2022-10-31T07:37:38;65.00;;;10.93;;
54993;SDS011;40891;47.242;8.648;2022-10-31T07:40:04;106.07;;;12.73;;
54993;SDS011;40891;47.242;8.648;2022-10-31T07:45:02;44.10;;;10.67;;
54993;SDS011;40891;47.242;8.648;2022-10-31T07:47:28;82.30;;;13.10;;
54993;SDS011;40891;47.242;8.648;2022-10-31T07:49:54;45.03;;;12.00;;
54993;SDS011;40891;47.242;8.648;2022-10-31T07:52:19;96.37;;;11.93;;
54993;SDS011;40891;47.242;8.648;2022-10-31T07:54:44;276.80;;;16.93;;
54993;SDS011;40891;47.242;8.648;2022-10-31T07:57:10;204.80;;;15.67;;
54993;SDS011;40891;47.242;8.648;2022-10-31T07:59:35;66.93;;;11.87;;
54993;SDS011;40891;47.242;8.648;2022-10-31T08:02:01;108.63;;;13.07;;
54993;SDS011;40891;47.242;8.648;2022-10-31T08:04:26;115.70;;;13.37;;
54993;SDS011;40891;47.242;8.648;2022-10-31T08:06:51;99.17;;;12.83;;
54993;SDS011;40891;47.242;8.648;2022-10-31T08:09:17;159.93;;;14.77;;
54993;SDS011;40891;47.242;8.648;2022-10-31T08:11:42;29.27;;;11.20;;
54993;SDS011;40891;47.242;8.648;2022-10-31T08:14:07;119.43;;;11.43;;
54993;SDS011;40891;47.242;8.648;2022-10-31T08:16:32;90.30;;;12.43;;
54993;SDS011;40891;47.242;8.648;2022-10-31T08:18:58;102.97;;;11.57;;
54993;SDS011;40891;47.242;8.648;2022-10-31T08:21:23;47.33;;;10.57;;
54993;SDS011;40891;47.242;8.648;2022-10-31T08:23:49;17.90;;;10.03;;
54993;SDS011;40891;47.242;8.648;2022-10-31T08:26:14;38.73;;;9.80;;
54993;SDS011;40891;47.242;8.648;2022-10-31T08:28:40;17.53;;;8.70;;
54993;SDS011;40891;47.242;8.648;2022-10-31T08:31:05;13.23;;;8.73;;
54993;SDS011;40891;47.242;8.648;2022-10-31T08:33:30;19.38;;;9.90;;
54993;SDS011;40891;47.242;8.648;2022-10-31T08:35:59;22.20;;;9.07;;
54993;SDS011;40891;47.242;8.648;2022-10-31T08:38:24;54.38;;;9.50;;
54993;SDS011;40891;47.242;8.648;2022-10-31T08:40:50;30.50;;;8.80;;
54993;SDS011;40891;47.242;8.648;2022-10-31T08:43:16;13.80;;;8.60;;
54993;SDS011;40891;47.242;8.648;2022-10-31T08:45:43;45.33;;;10.63;;
54993;SDS011;40891;47.242;8.648;2022-10-31T08:48:10;23.70;;;9.45;;
54993;SDS011;40891;47.242;8.648;2022-10-31T08:50:37;18.08;;;9.27;;
54993;SDS011;40891;47.242;8.648;2022-10-31T08:53:02;17.00;;;9.40;;
54993;SDS011;40891;47.242;8.648;2022-10-31T08:55:30;63.30;;;10.70;;
54993;SDS011;40891;47.242;8.648;2022-10-31T08:57:56;24.48;;;9.52;;
54993;SDS011;40891;47.242;8.648;2022-10-31T09:00:21;28.25;;;8.57;;
54993;SDS011;40891;47.242;8.648;2022-10-31T09:02:47;17.40;;;9.18;;
54993;SDS011;40891;47.242;8.648;2022-10-31T09:05:12;18.70;;;8.18;;
54993;SDS011;40891;47.242;8.648;2022-10-31T09:07:37;15.00;;;8.55;;
54993;SDS011;40891;47.242;8.648;2022-10-31T09:10:03;35.78;;;9.25;;
54993;SDS011;40891;47.242;8.648;2022-10-31T09:12:28;15.70;;;7.93;;
54993;SDS011;40891;47.242;8.648;2022-10-31T09:14:54;13.60;;;7.97;;
54993;SDS011;40891;47.242;8.648;2022-10-31T09:17:19;11.95;;;7.82;;
54993;SDS011;40891;47.242;8.648;2022-10-31T09:19:44;10.85;;;7.32;;
54993;SDS011;40891;47.242;8.648;2022-10-31T09:22:10;13.70;;;8.00;;
54993;SDS011;40891;47.242;8.648;2022-10-31T09:24:35;17.65;;;8.38;;
54993;SDS011;40891;47.242;8.648;2022-10-31T09:27:00;12.55;;;7.93;;
54993;SDS011;40891;47.242;8.648;2022-10-31T09:29:26;11.48;;;7.50;;
54993;SDS011;40891;47.242;8.648;2022-10-31T09:31:51;12.48;;;7.43;;
54993;SDS011;40891;47.242;8.648;2022-10-31T09:34:16;15.07;;;7.78;;
54993;SDS011;40891;47.242;8.648;2022-10-31T09:36:42;15.77;;;7.90;;
54993;SDS011;40891;47.242;8.648;2022-10-31T09:39:08;24.27;;;8.07;;
54993;SDS011;40891;47.242;8.648;2022-10-31T09:42:35;12.75;;;7.85;;
54993;SDS011;40891;47.242;8.648;2022-10-31T09:44:51;19.65;;;8.32;;
54993;SDS011;40891;47.242;8.648;2022-10-31T09:47:46;13.02;;;7.95;;
54993;SDS011;40891;47.242;8.648;2022-10-31T09:50:12;14.77;;;8.13;;
54993;SDS011;40891;47.242;8.648;2022-10-31T09:52:45;13.55;;;8.43;;
54993;SDS011;40891;47.242;8.648;2022-10-31T09:55:21;14.73;;;8.75;;
54993;SDS011;40891;47.242;8.648;2022-10-31T09:58:02;12.27;;;8.52;;
54993;SDS011;40891;47.242;8.648;2022-10-31T10:00:28;14.05;;;8.65;;
54993;SDS011;40891;47.242;8.648;2022-10-31T10:02:56;14.48;;;8.82;;
54993;SDS011;40891;47.242;8.648;2022-10-31T10:05:30;16.35;;;9.23;;
54993;SDS011;40891;47.242;8.648;2022-10-31T10:08:16;17.30;;;9.23;;
54993;SDS011;40891;47.242;8.648;2022-10-31T10:25:18;30.55;;;12.75;;
54993;SDS011;40891;47.242;8.648;2022-10-31T10:30:42;21.55;;;11.43;;
54993;SDS011;40891;47.242;8.648;2022-10-31T10:33:15;20.80;;;12.75;;
54993;SDS011;40891;47.242;8.648;2022-10-31T10:35:49;17.00;;;11.73;;
54993;SDS011;40891;47.242;8.648;2022-10-31T10:38:31;19.77;;;11.13;;
54993;SDS011;40891;47.242;8.648;2022-10-31T10:41:02;19.13;;;11.75;;
54993;SDS011;40891;47.242;8.648;2022-10-31T10:43:38;25.70;;;11.95;;
54993;SDS011;40891;47.242;8.648;2022-10-31T10:49:12;15.98;;;10.38;;
54993;SDS011;40891;47.242;8.648;2022-10-31T11:00:16;12.23;;;8.60;;
54993;SDS011;40891;47.242;8.648;2022-10-31T11:02:44;17.45;;;9.85;;
54993;SDS011;40891;47.242;8.648;2022-10-31T11:05:13;15.77;;;9.65;;
54993;SDS011;40891;47.242;8.648;2022-10-31T11:07:45;16.50;;;9.73;;
54993;SDS011;40891;47.242;8.648;2022-10-31T11:10:14;16.38;;;9.85;;
54993;SDS011;40891;47.242;8.648;2022-10-31T11:12:41;16.92;;;10.77;;
54993;SDS011;40891;47.242;8.648;2022-10-31T11:15:17;17.13;;;10.18;;
54993;SDS011;40891;47.242;8.648;2022-10-31T11:17:47;18.08;;;11.00;;
54993;SDS011;40891;47.242;8.648;2022-10-31T11:22:41;15.13;;;10.52;;
54993;SDS011;40891;47.242;8.648;2022-10-31T11:25:19;17.10;;;10.77;;
54993;SDS011;40891;47.242;8.648;2022-10-31T11:28:08;17.67;;;11.18;;
54993;SDS011;40891;47.242;8.648;2022-10-31T11:30:36;18.77;;;10.73;;
54993;SDS011;40891;47.242;8.648;2022-10-31T11:33:52;14.45;;;10.35;;
54993;SDS011;40891;47.242;8.648;2022-10-31T11:36:03;15.88;;;10.13;;
54993;SDS011;40891;47.242;8.648;2022-10-31T11:38:41;13.95;;;9.95;;
54993;SDS011;40891;47.242;8.648;2022-10-31T11:43:33;17.58;;;8.73;;
54993;SDS011;40891;47.242;8.648;2022-10-31T11:45:59;14.88;;;8.35;;
54993;SDS011;40891;47.242;8.648;2022-10-31T11:48:24;11.52;;;8.60;;
54993;SDS011;40891;47.242;8.648;2022-10-31T11:50:54;12.18;;;7.75;;
54993;SDS011;40891;47.242;8.648;2022-10-31T11:53:25;12.77;;;7.90;;
54993;SDS011;40891;47.242;8.648;2022-10-31T11:56:15;10.85;;;7.97;;
54993;SDS011;40891;47.242;8.648;2022-10-31T11:58:39;17.05;;;7.50;;
54993;SDS011;40891;47.242;8.648;2022-10-31T12:01:05;13.15;;;7.13;;
54993;SDS011;40891;47.242;8.648;2022-10-31T12:03:40;11.48;;;6.53;;
54993;SDS011;40891;47.242;8.648;2022-10-31T12:06:19;12.55;;;6.88;;
54993;SDS011;40891;47.242;8.648;2022-10-31T12:08:48;11.30;;;7.10;;
54993;SDS011;40891;47.242;8.648;2022-10-31T12:22:33;12.75;;;7.03;;
54993;SDS011;40891;47.242;8.648;2022-10-31T12:28:02;13.85;;;6.95;;
54993;SDS011;40891;47.242;8.648;2022-10-31T12:36:21;14.50;;;6.72;;
54993;SDS011;40891;47.242;8.648;2022-10-31T12:45:07;12.77;;;6.88;;
54993;SDS011;40891;47.242;8.648;2022-10-31T12:47:58;14.13;;;7.50;;
54993;SDS011;40891;47.242;8.648;2022-10-31T12:53:25;11.23;;;6.78;;
54993;SDS011;40891;47.242;8.648;2022-10-31T13:01:08;13.18;;;6.80;;
54993;SDS011;40891;47.242;8.648;2022-10-31T13:03:55;11.48;;;6.18;;
54993;SDS011;40891;47.242;8.648;2022-10-31T13:06:29;11.40;;;6.43;;
54993;SDS011;40891;47.242;8.648;2022-10-31T13:09:02;13.35;;;6.28;;
54993;SDS011;40891;47.242;8.648;2022-10-31T13:11:36;12.50;;;6.93;;
54993;SDS011;40891;47.242;8.648;2022-10-31T13:14:53;11.73;;;6.68;;
54993;SDS011;40891;47.242;8.648;2022-10-31T13:17:04;12.93;;;6.60;;
54993;SDS011;40891;47.242;8.648;2022-10-31T13:19:33;12.07;;;6.80;;
54993;SDS011;40891;47.242;8.648;2022-10-31T13:22:18;12.00;;;6.20;;
54993;SDS011;40891;47.242;8.648;2022-10-31T13:27:48;11.32;;;6.55;;
54993;SDS011;40891;47.242;8.648;2022-10-31T13:30:20;11.25;;;6.85;;
54993;SDS011;40891;47.242;8.648;2022-10-31T13:32:50;12.95;;;7.18;;
54993;SDS011;40891;47.242;8.648;2022-10-31T13:35:40;9.95;;;6.20;;
54993;SDS011;40891;47.242;8.648;2022-10-31T13:40:59;24.23;;;6.85;;
54993;SDS011;40891;47.242;8.648;2022-10-31T13:48:57;23.55;;;7.22;;
54993;SDS011;40891;47.242;8.648;2022-10-31T13:51:27;18.10;;;7.25;;
54993;SDS011;40891;47.242;8.648;2022-10-31T13:56:26;16.42;;;6.70;;
54993;SDS011;40891;47.242;8.648;2022-10-31T13:58:59;13.68;;;6.75;;
54993;SDS011;40891;47.242;8.648;2022-10-31T14:01:33;12.27;;;6.72;;
54993;SDS011;40891;47.242;8.648;2022-10-31T14:04:02;15.95;;;6.80;;
54993;SDS011;40891;47.242;8.648;2022-10-31T14:12:11;14.55;;;7.30;;
54993;SDS011;40891;47.242;8.648;2022-10-31T14:14:49;15.52;;;7.40;;
54993;SDS011;40891;47.242;8.648;2022-10-31T14:17:23;18.05;;;7.45;;
54993;SDS011;40891;47.242;8.648;2022-10-31T14:22:35;16.10;;;6.82;;
54993;SDS011;40891;47.242;8.648;2022-10-31T14:25:23;14.02;;;7.38;;
54993;SDS011;40891;47.242;8.648;2022-10-31T14:27:50;14.18;;;7.47;;
54993;SDS011;40891;47.242;8.648;2022-10-31T14:30:18;13.38;;;6.60;;
54993;SDS011;40891;47.242;8.648;2022-10-31T14:32:53;13.15;;;6.10;;
54993;SDS011;40891;47.242;8.648;2022-10-31T14:35:25;13.63;;;6.20;;
54993;SDS011;40891;47.242;8.648;2022-10-31T14:38:18;12.77;;;7.10;;
54993;SDS011;40891;47.242;8.648;2022-10-31T14:43:37;14.25;;;7.07;;
54993;SDS011;40891;47.242;8.648;2022-10-31T14:51:56;16.40;;;6.07;;
54993;SDS011;40891;47.242;8.648;2022-10-31T14:54:28;13.93;;;6.88;;
54993;SDS011;40891;47.242;8.648;2022-10-31T14:57:00;16.63;;;7.07;;
54993;SDS011;40891;47.242;8.648;2022-10-31T14:59:30;13.60;;;5.55;;
54993;SDS011;40891;47.242;8.648;2022-10-31T15:01:59;14.68;;;5.22;;
54993;SDS011;40891;47.242;8.648;2022-10-31T15:04:27;19.38;;;7.82;;
54993;SDS011;40891;47.242;8.648;2022-10-31T15:07:02;18.65;;;8.93;;
54993;SDS011;40891;47.242;8.648;2022-10-31T15:09:37;20.23;;;6.82;;
54993;SDS011;40891;47.242;8.648;2022-10-31T15:15:12;19.40;;;7.40;;
54993;SDS011;40891;47.242;8.648;2022-10-31T15:17:43;15.90;;;5.80;;
54993;SDS011;40891;47.242;8.648;2022-10-31T15:20:11;18.67;;;5.88;;
54993;SDS011;40891;47.242;8.648;2022-10-31T15:22:37;19.85;;;5.35;;
54993;SDS011;40891;47.242;8.648;2022-10-31T15:25:03;15.10;;;4.97;;
54993;SDS011;40891;47.242;8.648;2022-10-31T15:27:28;17.08;;;5.80;;
54993;SDS011;40891;47.242;8.648;2022-10-31T15:29:55;21.45;;;6.55;;
54993;SDS011;40891;47.242;8.648;2022-10-31T15:34:48;17.15;;;6.07;;
54993;SDS011;40891;47.242;8.648;2022-10-31T15:37:16;15.23;;;6.38;;
54993;SDS011;40891;47.242;8.648;2022-10-31T15:39:47;13.65;;;4.97;;
54993;SDS011;40891;47.242;8.648;2022-10-31T15:42:20;20.23;;;6.22;;
54993;SDS011;40891;47.242;8.648;2022-10-31T15:44:54;17.10;;;6.35;;
54993;SDS011;40891;47.242;8.648;2022-10-31T15:47:29;13.57;;;5.45;;
54993;SDS011;40891;47.242;8.648;2022-10-31T15:49:57;15.93;;;5.82;;
54993;SDS011;40891;47.242;8.648;2022-10-31T15:54:54;17.55;;;6.38;;
54993;SDS011;40891;47.242;8.648;2022-10-31T15:57:23;20.10;;;6.78;;
54993;SDS011;40891;47.242;8.648;2022-10-31T15:59:51;15.25;;;6.00;;
54993;SDS011;40891;47.242;8.648;2022-10-31T16:02:24;19.52;;;6.32;;
54993;SDS011;40891;47.242;8.648;2022-10-31T16:04:58;17.17;;;6.43;;
54993;SDS011;40891;47.242;8.648;2022-10-31T16:07:26;18.88;;;6.85;;
54993;SDS011;40891;47.242;8.648;2022-10-31T16:12:22;18.65;;;7.18;;
54993;SDS011;40891;47.242;8.648;2022-10-31T16:14:50;14.23;;;6.15;;
54993;SDS011;40891;47.242;8.648;2022-10-31T16:17:17;15.00;;;6.82;;
54993;SDS011;40891;47.242;8.648;2022-10-31T16:19:51;20.02;;;7.13;;
54993;SDS011;40891;47.242;8.648;2022-10-31T16:22:34;33.93;;;9.60;;
54993;SDS011;40891;47.242;8.648;2022-10-31T16:25:11;20.20;;;8.03;;
54993;SDS011;40891;47.242;8.648;2022-10-31T16:27:39;19.13;;;7.95;;
54993;SDS011;40891;47.242;8.648;2022-10-31T16:32:55;22.77;;;8.73;;
54993;SDS011;40891;47.242;8.648;2022-10-31T16:35:27;21.93;;;9.37;;
54993;SDS011;40891;47.242;8.648;2022-10-31T16:37:57;37.43;;;12.13;;
54993;SDS011;40891;47.242;8.648;2022-10-31T16:40:23;27.57;;;11.67;;
54993;SDS011;40891;47.242;8.648;2022-10-31T16:42:49;24.93;;;11.97;;
54993;SDS011;40891;47.242;8.648;2022-10-31T16:45:28;27.17;;;10.10;;
54993;SDS011;40891;47.242;8.648;2022-10-31T16:48:06;20.83;;;8.80;;
54993;SDS011;40891;47.242;8.648;2022-10-31T16:50:36;34.97;;;12.60;;
54993;SDS011;40891;47.242;8.648;2022-10-31T16:53:02;36.67;;;13.33;;
54993;SDS011;40891;47.242;8.648;2022-10-31T16:55:27;29.30;;;11.67;;
54993;SDS011;40891;47.242;8.648;2022-10-31T16:57:54;21.10;;;10.57;;
54993;SDS011;40891;47.242;8.648;2022-10-31T17:00:21;29.20;;;10.70;;
54993;SDS011;40891;47.242;8.648;2022-10-31T17:02:48;23.10;;;10.03;;
54993;SDS011;40891;47.242;8.648;2022-10-31T17:05:16;24.33;;;11.57;;
54993;SDS011;40891;47.242;8.648;2022-10-31T17:07:43;21.07;;;10.13;;